sensor_id;sensor_type;location;lat;lon;timestamp;P1;durP1;ratioP1;P2;durP2;ratioP2
61085;SDS011;46967;48.876;2.136;2023-03-14T00:01:10;9.98;;;1.80;;
61085;SDS011;46967;48.876;2.136;2023-03-14T00:03:40;7.80;;;1.63;;
61085;SDS011;46967;48.876;2.136;2023-03-14T00:06:06;8.70;;;1.20;;
61085;SDS011;46967;48.876;2.136;2023-03-14T00:08:32;9.48;;;1.33;;
61085;SDS011;46967;48.876;2.136;2023-03-14T00:10:58;12.27;;;1.77;;
61085;SDS011;46967;48.876;2.136;2023-03-14T00:13:28;9.38;;;1.67;;
61085;SDS011;46967;48.876;2.136;2023-03-14T00:15:53;4.65;;;1.10;;
61085;SDS011;46967;48.876;2.136;2023-03-14T00:18:19;6.97;;;1.67;;
61085;SDS011;46967;48.876;2.136;2023-03-14T00:20:44;4.38;;;1.17;;
61085;SDS011;46967;48.876;2.136;2023-03-14T00:23:10;7.88;;;1.00;;
61085;SDS011;46967;48.876;2.136;2023-03-14T00:25:35;6.90;;;1.55;;
61085;SDS011;46967;48.876;2.136;2023-03-14T00:28:00;4.43;;;0.90;;
61085;SDS011;46967;48.876;2.136;2023-03-14T00:30:26;5.95;;;0.90;;
61085;SDS011;46967;48.876;2.136;2023-03-14T00:32:51;5.00;;;1.15;;
61085;SDS011;46967;48.876;2.136;2023-03-14T00:35:16;2.95;;;0.73;;
61085;SDS011;46967;48.876;2.136;2023-03-14T00:37:42;5.32;;;0.93;;
61085;SDS011;46967;48.876;2.136;2023-03-14T00:40:07;4.53;;;1.00;;
61085;SDS011;46967;48.876;2.136;2023-03-14T00:42:33;3.50;;;0.88;;
61085;SDS011;46967;48.876;2.136;2023-03-14T00:44:59;3.17;;;1.10;;
61085;SDS011;46967;48.876;2.136;2023-03-14T00:47:25;3.78;;;0.85;;
61085;SDS011;46967;48.876;2.136;2023-03-14T00:49:50;6.03;;;1.30;;
61085;SDS011;46967;48.876;2.136;2023-03-14T00:52:15;6.13;;;0.82;;
61085;SDS011;46967;48.876;2.136;2023-03-14T00:54:41;9.23;;;1.42;;
61085;SDS011;46967;48.876;2.136;2023-03-14T00:57:06;8.27;;;1.40;;
61085;SDS011;46967;48.876;2.136;2023-03-14T00:59:31;4.70;;;1.02;;
61085;SDS011;46967;48.876;2.136;2023-03-14T01:01:57;7.03;;;1.60;;
61085;SDS011;46967;48.876;2.136;2023-03-14T01:04:22;5.85;;;1.25;;
61085;SDS011;46967;48.876;2.136;2023-03-14T01:06:47;7.78;;;1.77;;
61085;SDS011;46967;48.876;2.136;2023-03-14T01:09:13;8.13;;;1.85;;
61085;SDS011;46967;48.876;2.136;2023-03-14T01:11:38;6.32;;;1.23;;
61085;SDS011;46967;48.876;2.136;2023-03-14T01:14:03;8.45;;;1.30;;
61085;SDS011;46967;48.876;2.136;2023-03-14T01:16:30;9.30;;;1.15;;
61085;SDS011;46967;48.876;2.136;2023-03-14T01:18:57;14.35;;;1.70;;
61085;SDS011;46967;48.876;2.136;2023-03-14T01:21:26;7.18;;;1.50;;
61085;SDS011;46967;48.876;2.136;2023-03-14T01:23:54;9.75;;;1.83;;
61085;SDS011;46967;48.876;2.136;2023-03-14T01:26:21;9.27;;;1.45;;
61085;SDS011;46967;48.876;2.136;2023-03-14T01:28:49;7.13;;;1.42;;
61085;SDS011;46967;48.876;2.136;2023-03-14T01:31:16;10.27;;;1.40;;
61085;SDS011;46967;48.876;2.136;2023-03-14T01:33:41;11.30;;;1.58;;
61085;SDS011;46967;48.876;2.136;2023-03-14T01:36:08;10.23;;;1.50;;
61085;SDS011;46967;48.876;2.136;2023-03-14T01:38:34;9.95;;;1.75;;
61085;SDS011;46967;48.876;2.136;2023-03-14T01:41:00;7.28;;;0.90;;
61085;SDS011;46967;48.876;2.136;2023-03-14T01:43:26;10.80;;;1.70;;
61085;SDS011;46967;48.876;2.136;2023-03-14T01:51:01;9.00;;;1.17;;
61085;SDS011;46967;48.876;2.136;2023-03-14T01:53:28;9.50;;;1.75;;
61085;SDS011;46967;48.876;2.136;2023-03-14T01:55:54;7.18;;;1.85;;
61085;SDS011;46967;48.876;2.136;2023-03-14T01:58:24;7.65;;;1.30;;
61085;SDS011;46967;48.876;2.136;2023-03-14T02:00:56;6.72;;;1.40;;
61085;SDS011;46967;48.876;2.136;2023-03-14T02:03:23;6.50;;;1.33;;
61085;SDS011;46967;48.876;2.136;2023-03-14T02:05:52;10.77;;;2.42;;
61085;SDS011;46967;48.876;2.136;2023-03-14T02:08:21;7.35;;;1.55;;
61085;SDS011;46967;48.876;2.136;2023-03-14T02:10:49;5.75;;;0.82;;
61085;SDS011;46967;48.876;2.136;2023-03-14T02:13:16;6.43;;;1.13;;
61085;SDS011;46967;48.876;2.136;2023-03-14T02:15:43;4.68;;;0.82;;
61085;SDS011;46967;48.876;2.136;2023-03-14T02:18:08;4.03;;;0.98;;
61085;SDS011;46967;48.876;2.136;2023-03-14T02:20:38;5.05;;;0.90;;
61085;SDS011;46967;48.876;2.136;2023-03-14T02:23:16;8.45;;;1.15;;
61085;SDS011;46967;48.876;2.136;2023-03-14T02:26:01;6.43;;;1.00;;
61085;SDS011;46967;48.876;2.136;2023-03-14T02:28:50;7.50;;;1.33;;
61085;SDS011;46967;48.876;2.136;2023-03-14T02:31:18;5.75;;;1.02;;
61085;SDS011;46967;48.876;2.136;2023-03-14T02:33:43;2.40;;;0.65;;
61085;SDS011;46967;48.876;2.136;2023-03-14T02:36:10;3.22;;;0.88;;
61085;SDS011;46967;48.876;2.136;2023-03-14T02:38:44;5.55;;;0.85;;
61085;SDS011;46967;48.876;2.136;2023-03-14T02:41:15;6.50;;;0.75;;
61085;SDS011;46967;48.876;2.136;2023-03-14T02:43:41;4.57;;;0.68;;
61085;SDS011;46967;48.876;2.136;2023-03-14T02:46:07;2.67;;;0.68;;
61085;SDS011;46967;48.876;2.136;2023-03-14T02:48:41;6.25;;;1.05;;
61085;SDS011;46967;48.876;2.136;2023-03-14T02:51:10;2.92;;;0.65;;
61085;SDS011;46967;48.876;2.136;2023-03-14T02:53:37;4.25;;;0.80;;
61085;SDS011;46967;48.876;2.136;2023-03-14T02:56:04;3.92;;;0.90;;
61085;SDS011;46967;48.876;2.136;2023-03-14T02:58:30;2.85;;;0.70;;
61085;SDS011;46967;48.876;2.136;2023-03-14T03:00:56;5.82;;;0.68;;
61085;SDS011;46967;48.876;2.136;2023-03-14T03:03:21;4.30;;;0.57;;
61085;SDS011;46967;48.876;2.136;2023-03-14T03:05:47;4.57;;;0.65;;
61085;SDS011;46967;48.876;2.136;2023-03-14T03:08:15;3.20;;;0.68;;
61085;SDS011;46967;48.876;2.136;2023-03-14T03:10:40;5.55;;;0.73;;
61085;SDS011;46967;48.876;2.136;2023-03-14T03:13:06;2.72;;;0.80;;
61085;SDS011;46967;48.876;2.136;2023-03-14T03:15:31;2.72;;;0.60;;
61085;SDS011;46967;48.876;2.136;2023-03-14T03:17:56;1.45;;;0.47;;
61085;SDS011;46967;48.876;2.136;2023-03-14T03:20:22;1.92;;;0.55;;
61085;SDS011;46967;48.876;2.136;2023-03-14T03:22:47;2.08;;;0.55;;
61085;SDS011;46967;48.876;2.136;2023-03-14T03:25:14;1.65;;;0.45;;
61085;SDS011;46967;48.876;2.136;2023-03-14T03:27:40;3.47;;;0.47;;
61085;SDS011;46967;48.876;2.136;2023-03-14T03:30:05;3.20;;;0.85;;
61085;SDS011;46967;48.876;2.136;2023-03-14T03:32:33;2.38;;;0.40;;
61085;SDS011;46967;48.876;2.136;2023-03-14T03:34:58;2.97;;;0.70;;
61085;SDS011;46967;48.876;2.136;2023-03-14T03:37:23;1.48;;;0.40;;
61085;SDS011;46967;48.876;2.136;2023-03-14T03:39:52;5.00;;;0.65;;
61085;SDS011;46967;48.876;2.136;2023-03-14T03:42:18;2.20;;;0.40;;
61085;SDS011;46967;48.876;2.136;2023-03-14T03:44:44;2.35;;;0.30;;
61085;SDS011;46967;48.876;2.136;2023-03-14T03:47:10;2.85;;;0.20;;
61085;SDS011;46967;48.876;2.136;2023-03-14T03:49:35;1.45;;;0.30;;
61085;SDS011;46967;48.876;2.136;2023-03-14T03:52:01;2.35;;;0.30;;
61085;SDS011;46967;48.876;2.136;2023-03-14T03:54:26;1.67;;;0.47;;
61085;SDS011;46967;48.876;2.136;2023-03-14T03:56:53;2.63;;;0.77;;
61085;SDS011;46967;48.876;2.136;2023-03-14T03:59:19;2.38;;;0.40;;
61085;SDS011;46967;48.876;2.136;2023-03-14T04:01:44;2.22;;;0.40;;
61085;SDS011;46967;48.876;2.136;2023-03-14T04:04:09;1.13;;;0.20;;
61085;SDS011;46967;48.876;2.136;2023-03-14T04:06:35;0.40;;;0.10;;
61085;SDS011;46967;48.876;2.136;2023-03-14T04:09:02;2.83;;;0.40;;
61085;SDS011;46967;48.876;2.136;2023-03-14T04:11:28;0.77;;;0.38;;
61085;SDS011;46967;48.876;2.136;2023-03-14T04:13:53;2.13;;;0.40;;
61085;SDS011;46967;48.876;2.136;2023-03-14T04:16:20;2.03;;;0.30;;
61085;SDS011;46967;48.876;2.136;2023-03-14T04:18:47;0.98;;;0.25;;
61085;SDS011;46967;48.876;2.136;2023-03-14T04:21:12;3.20;;;0.40;;
61085;SDS011;46967;48.876;2.136;2023-03-14T04:23:38;0.35;;;0.10;;
61085;SDS011;46967;48.876;2.136;2023-03-14T04:26:03;1.52;;;0.40;;
61085;SDS011;46967;48.876;2.136;2023-03-14T04:28:29;0.90;;;0.20;;
61085;SDS011;46967;48.876;2.136;2023-03-14T04:30:54;0.93;;;0.08;;
61085;SDS011;46967;48.876;2.136;2023-03-14T04:33:19;1.23;;;0.13;;
61085;SDS011;46967;48.876;2.136;2023-03-14T04:35:45;0.43;;;0.10;;
61085;SDS011;46967;48.876;2.136;2023-03-14T04:38:12;0.63;;;0.15;;
61085;SDS011;46967;48.876;2.136;2023-03-14T04:40:38;1.35;;;0.40;;
61085;SDS011;46967;48.876;2.136;2023-03-14T04:43:05;0.80;;;0.40;;
61085;SDS011;46967;48.876;2.136;2023-03-14T04:45:31;1.35;;;0.20;;
61085;SDS011;46967;48.876;2.136;2023-03-14T04:47:56;3.50;;;0.82;;
61085;SDS011;46967;48.876;2.136;2023-03-14T04:50:21;2.60;;;0.70;;
61085;SDS011;46967;48.876;2.136;2023-03-14T04:52:47;3.08;;;0.55;;
61085;SDS011;46967;48.876;2.136;2023-03-14T04:55:12;6.28;;;1.05;;
61085;SDS011;46967;48.876;2.136;2023-03-14T04:57:38;4.18;;;1.00;;
61085;SDS011;46967;48.876;2.136;2023-03-14T05:00:03;8.25;;;1.00;;
61085;SDS011;46967;48.876;2.136;2023-03-14T05:02:32;7.85;;;1.38;;
61085;SDS011;46967;48.876;2.136;2023-03-14T05:04:58;9.05;;;1.75;;
61085;SDS011;46967;48.876;2.136;2023-03-14T05:07:24;12.90;;;1.88;;
61085;SDS011;46967;48.876;2.136;2023-03-14T05:09:49;11.75;;;1.98;;
61085;SDS011;46967;48.876;2.136;2023-03-14T05:12:14;14.23;;;1.75;;
61085;SDS011;46967;48.876;2.136;2023-03-14T05:14:40;15.60;;;2.13;;
61085;SDS011;46967;48.876;2.136;2023-03-14T05:17:05;8.57;;;2.25;;
61085;SDS011;46967;48.876;2.136;2023-03-14T05:19:30;11.60;;;1.92;;
61085;SDS011;46967;48.876;2.136;2023-03-14T05:21:56;13.32;;;1.52;;
61085;SDS011;46967;48.876;2.136;2023-03-14T05:24:21;9.63;;;1.63;;
61085;SDS011;46967;48.876;2.136;2023-03-14T05:26:47;9.23;;;1.73;;
61085;SDS011;46967;48.876;2.136;2023-03-14T05:29:12;13.55;;;2.05;;
61085;SDS011;46967;48.876;2.136;2023-03-14T05:31:37;10.73;;;2.22;;
61085;SDS011;46967;48.876;2.136;2023-03-14T05:34:03;16.17;;;2.78;;
61085;SDS011;46967;48.876;2.136;2023-03-14T05:36:28;11.40;;;2.17;;
61085;SDS011;46967;48.876;2.136;2023-03-14T05:38:54;11.60;;;2.28;;
61085;SDS011;46967;48.876;2.136;2023-03-14T05:41:19;11.40;;;2.17;;
61085;SDS011;46967;48.876;2.136;2023-03-14T05:43:44;8.35;;;1.80;;
61085;SDS011;46967;48.876;2.136;2023-03-14T05:46:10;10.15;;;1.92;;
61085;SDS011;46967;48.876;2.136;2023-03-14T05:48:35;8.05;;;1.63;;
61085;SDS011;46967;48.876;2.136;2023-03-14T05:51:00;12.55;;;2.15;;
61085;SDS011;46967;48.876;2.136;2023-03-14T05:53:26;18.20;;;2.53;;
61085;SDS011;46967;48.876;2.136;2023-03-14T05:55:52;12.70;;;1.80;;
61085;SDS011;46967;48.876;2.136;2023-03-14T05:58:18;14.02;;;2.10;;
61085;SDS011;46967;48.876;2.136;2023-03-14T06:00:44;10.38;;;1.88;;
61085;SDS011;46967;48.876;2.136;2023-03-14T06:03:09;10.32;;;2.30;;
61085;SDS011;46967;48.876;2.136;2023-03-14T06:05:34;6.00;;;1.65;;
61085;SDS011;46967;48.876;2.136;2023-03-14T06:08:00;9.15;;;2.08;;
61085;SDS011;46967;48.876;2.136;2023-03-14T06:10:25;10.68;;;2.08;;
61085;SDS011;46967;48.876;2.136;2023-03-14T06:12:50;9.13;;;1.50;;
61085;SDS011;46967;48.876;2.136;2023-03-14T06:15:16;3.97;;;1.55;;
61085;SDS011;46967;48.876;2.136;2023-03-14T06:17:41;8.57;;;1.92;;
61085;SDS011;46967;48.876;2.136;2023-03-14T06:20:07;12.82;;;2.33;;
61085;SDS011;46967;48.876;2.136;2023-03-14T06:22:33;11.90;;;2.35;;
61085;SDS011;46967;48.876;2.136;2023-03-14T06:24:58;16.17;;;2.40;;
61085;SDS011;46967;48.876;2.136;2023-03-14T06:27:23;9.07;;;2.25;;
61085;SDS011;46967;48.876;2.136;2023-03-14T06:29:49;19.23;;;2.78;;
61085;SDS011;46967;48.876;2.136;2023-03-14T06:32:14;15.82;;;2.15;;
61085;SDS011;46967;48.876;2.136;2023-03-14T06:34:40;14.27;;;2.25;;
61085;SDS011;46967;48.876;2.136;2023-03-14T06:37:05;13.65;;;2.92;;
61085;SDS011;46967;48.876;2.136;2023-03-14T06:39:31;11.55;;;2.42;;
61085;SDS011;46967;48.876;2.136;2023-03-14T06:41:56;8.02;;;2.70;;
61085;SDS011;46967;48.876;2.136;2023-03-14T06:44:22;12.77;;;2.75;;
61085;SDS011;46967;48.876;2.136;2023-03-14T06:46:47;18.52;;;2.47;;
61085;SDS011;46967;48.876;2.136;2023-03-14T06:49:12;9.60;;;2.08;;
61085;SDS011;46967;48.876;2.136;2023-03-14T06:51:38;16.58;;;2.60;;
61085;SDS011;46967;48.876;2.136;2023-03-14T06:54:04;16.10;;;2.03;;
61085;SDS011;46967;48.876;2.136;2023-03-14T06:56:30;18.60;;;2.78;;
61085;SDS011;46967;48.876;2.136;2023-03-14T06:58:55;14.35;;;2.47;;
61085;SDS011;46967;48.876;2.136;2023-03-14T07:01:24;13.18;;;2.05;;
61085;SDS011;46967;48.876;2.136;2023-03-14T07:03:52;11.32;;;2.22;;
61085;SDS011;46967;48.876;2.136;2023-03-14T07:06:18;15.68;;;1.98;;
61085;SDS011;46967;48.876;2.136;2023-03-14T07:08:43;10.80;;;1.80;;
61085;SDS011;46967;48.876;2.136;2023-03-14T07:11:08;9.57;;;1.95;;
61085;SDS011;46967;48.876;2.136;2023-03-14T07:13:36;16.00;;;2.22;;
61085;SDS011;46967;48.876;2.136;2023-03-14T07:16:02;16.38;;;2.42;;
61085;SDS011;46967;48.876;2.136;2023-03-14T07:18:27;11.88;;;2.33;;
61085;SDS011;46967;48.876;2.136;2023-03-14T07:20:53;15.00;;;3.03;;
61085;SDS011;46967;48.876;2.136;2023-03-14T07:23:18;12.43;;;1.90;;
61085;SDS011;46967;48.876;2.136;2023-03-14T07:25:43;11.55;;;2.10;;
61085;SDS011;46967;48.876;2.136;2023-03-14T07:28:09;13.38;;;1.95;;
61085;SDS011;46967;48.876;2.136;2023-03-14T07:30:34;13.88;;;2.03;;
61085;SDS011;46967;48.876;2.136;2023-03-14T07:33:00;11.30;;;2.10;;
61085;SDS011;46967;48.876;2.136;2023-03-14T07:35:25;20.13;;;2.40;;
61085;SDS011;46967;48.876;2.136;2023-03-14T07:37:50;14.30;;;2.00;;
61085;SDS011;46967;48.876;2.136;2023-03-14T07:40:16;16.65;;;2.53;;
61085;SDS011;46967;48.876;2.136;2023-03-14T07:42:42;14.55;;;2.35;;
61085;SDS011;46967;48.876;2.136;2023-03-14T07:45:08;11.27;;;1.80;;
61085;SDS011;46967;48.876;2.136;2023-03-14T07:47:35;9.45;;;2.53;;
61085;SDS011;46967;48.876;2.136;2023-03-14T07:50:00;10.77;;;1.98;;
61085;SDS011;46967;48.876;2.136;2023-03-14T07:52:26;14.90;;;2.20;;
61085;SDS011;46967;48.876;2.136;2023-03-14T07:54:51;11.75;;;2.15;;
61085;SDS011;46967;48.876;2.136;2023-03-14T07:57:16;13.55;;;2.80;;
61085;SDS011;46967;48.876;2.136;2023-03-14T07:59:42;13.60;;;2.42;;
61085;SDS011;46967;48.876;2.136;2023-03-14T08:02:09;8.57;;;1.60;;
61085;SDS011;46967;48.876;2.136;2023-03-14T08:04:36;11.60;;;2.10;;
61085;SDS011;46967;48.876;2.136;2023-03-14T08:07:02;13.70;;;2.42;;
61085;SDS011;46967;48.876;2.136;2023-03-14T08:09:28;12.75;;;2.20;;
61085;SDS011;46967;48.876;2.136;2023-03-14T08:11:53;7.75;;;1.77;;
61085;SDS011;46967;48.876;2.136;2023-03-14T08:14:18;13.35;;;2.03;;
61085;SDS011;46967;48.876;2.136;2023-03-14T08:16:44;8.98;;;1.85;;
61085;SDS011;46967;48.876;2.136;2023-03-14T08:19:09;14.68;;;2.50;;
61085;SDS011;46967;48.876;2.136;2023-03-14T08:21:34;16.42;;;2.42;;
61085;SDS011;46967;48.876;2.136;2023-03-14T08:23:59;20.17;;;2.22;;
61085;SDS011;46967;48.876;2.136;2023-03-14T08:26:25;10.07;;;1.95;;
61085;SDS011;46967;48.876;2.136;2023-03-14T08:28:51;13.65;;;1.40;;
61085;SDS011;46967;48.876;2.136;2023-03-14T08:31:16;9.48;;;1.70;;
61085;SDS011;46967;48.876;2.136;2023-03-14T08:33:42;12.02;;;1.85;;
61085;SDS011;46967;48.876;2.136;2023-03-14T08:36:07;18.23;;;2.10;;
61085;SDS011;46967;48.876;2.136;2023-03-14T08:38:33;11.63;;;1.77;;
61085;SDS011;46967;48.876;2.136;2023-03-14T08:40:59;10.68;;;1.88;;
61085;SDS011;46967;48.876;2.136;2023-03-14T08:43:26;11.38;;;2.03;;
61085;SDS011;46967;48.876;2.136;2023-03-14T08:45:52;9.52;;;1.70;;
61085;SDS011;46967;48.876;2.136;2023-03-14T08:48:18;9.75;;;1.48;;
61085;SDS011;46967;48.876;2.136;2023-03-14T08:50:44;11.20;;;1.90;;
61085;SDS011;46967;48.876;2.136;2023-03-14T08:53:10;8.77;;;1.60;;
61085;SDS011;46967;48.876;2.136;2023-03-14T08:55:35;5.32;;;1.55;;
61085;SDS011;46967;48.876;2.136;2023-03-14T08:58:01;12.13;;;2.30;;
61085;SDS011;46967;48.876;2.136;2023-03-14T09:00:26;10.23;;;2.45;;
61085;SDS011;46967;48.876;2.136;2023-03-14T09:02:51;12.57;;;1.58;;
61085;SDS011;46967;48.876;2.136;2023-03-14T09:05:17;8.82;;;1.60;;
61085;SDS011;46967;48.876;2.136;2023-03-14T09:07:42;4.88;;;1.50;;
61085;SDS011;46967;48.876;2.136;2023-03-14T09:10:08;11.57;;;1.45;;
61085;SDS011;46967;48.876;2.136;2023-03-14T09:12:34;6.40;;;1.40;;
61085;SDS011;46967;48.876;2.136;2023-03-14T09:15:00;7.38;;;1.85;;
61085;SDS011;46967;48.876;2.136;2023-03-14T09:17:25;12.90;;;2.78;;
61085;SDS011;46967;48.876;2.136;2023-03-14T09:19:51;11.50;;;1.50;;
61085;SDS011;46967;48.876;2.136;2023-03-14T09:22:16;9.95;;;1.02;;
61085;SDS011;46967;48.876;2.136;2023-03-14T09:24:42;9.30;;;1.50;;
61085;SDS011;46967;48.876;2.136;2023-03-14T09:27:07;3.90;;;0.90;;
61085;SDS011;46967;48.876;2.136;2023-03-14T09:29:33;6.00;;;1.08;;
61085;SDS011;46967;48.876;2.136;2023-03-14T09:31:59;4.82;;;0.80;;
61085;SDS011;46967;48.876;2.136;2023-03-14T09:34:25;6.78;;;0.98;;
61085;SDS011;46967;48.876;2.136;2023-03-14T09:36:51;3.70;;;0.82;;
61085;SDS011;46967;48.876;2.136;2023-03-14T09:39:16;5.95;;;1.50;;
61085;SDS011;46967;48.876;2.136;2023-03-14T09:41:49;6.90;;;0.90;;
61085;SDS011;46967;48.876;2.136;2023-03-14T09:44:21;6.32;;;0.95;;
61085;SDS011;46967;48.876;2.136;2023-03-14T09:46:52;6.22;;;1.10;;
61085;SDS011;46967;48.876;2.136;2023-03-14T09:49:29;6.75;;;1.20;;
61085;SDS011;46967;48.876;2.136;2023-03-14T09:51:59;10.88;;;1.15;;
61085;SDS011;46967;48.876;2.136;2023-03-14T09:54:30;6.03;;;0.95;;
61085;SDS011;46967;48.876;2.136;2023-03-14T09:56:57;5.90;;;0.93;;
61085;SDS011;46967;48.876;2.136;2023-03-14T09:59:23;7.90;;;1.35;;
61085;SDS011;46967;48.876;2.136;2023-03-14T10:01:49;7.80;;;1.05;;
61085;SDS011;46967;48.876;2.136;2023-03-14T10:04:15;9.18;;;0.93;;
61085;SDS011;46967;48.876;2.136;2023-03-14T10:06:45;6.30;;;1.38;;
61085;SDS011;46967;48.876;2.136;2023-03-14T10:09:20;6.45;;;1.80;;
61085;SDS011;46967;48.876;2.136;2023-03-14T10:11:56;7.47;;;1.15;;
61085;SDS011;46967;48.876;2.136;2023-03-14T10:14:35;8.60;;;1.23;;
61085;SDS011;46967;48.876;2.136;2023-03-14T10:17:12;7.07;;;1.30;;
61085;SDS011;46967;48.876;2.136;2023-03-14T10:19:50;4.75;;;0.90;;
61085;SDS011;46967;48.876;2.136;2023-03-14T10:22:21;6.95;;;1.30;;
61085;SDS011;46967;48.876;2.136;2023-03-14T10:24:53;10.05;;;1.05;;
61085;SDS011;46967;48.876;2.136;2023-03-14T10:27:31;11.98;;;1.17;;
61085;SDS011;46967;48.876;2.136;2023-03-14T10:30:06;9.27;;;1.88;;
61085;SDS011;46967;48.876;2.136;2023-03-14T10:35:19;7.30;;;1.30;;
61085;SDS011;46967;48.876;2.136;2023-03-14T10:37:50;7.40;;;1.20;;
61085;SDS011;46967;48.876;2.136;2023-03-14T10:40:24;10.27;;;1.58;;
61085;SDS011;46967;48.876;2.136;2023-03-14T10:42:53;6.93;;;1.10;;
61085;SDS011;46967;48.876;2.136;2023-03-14T10:45:37;11.68;;;1.17;;
61085;SDS011;46967;48.876;2.136;2023-03-14T10:48:21;4.20;;;0.98;;
61085;SDS011;46967;48.876;2.136;2023-03-14T10:51:05;10.38;;;1.35;;
61085;SDS011;46967;48.876;2.136;2023-03-14T10:56:06;10.00;;;1.10;;
61085;SDS011;46967;48.876;2.136;2023-03-14T10:58:33;7.78;;;1.48;;
61085;SDS011;46967;48.876;2.136;2023-03-14T11:12:41;4.45;;;1.00;;
61085;SDS011;46967;48.876;2.136;2023-03-14T11:15:35;9.65;;;1.42;;
61085;SDS011;46967;48.876;2.136;2023-03-14T11:26:17;8.23;;;1.20;;
61085;SDS011;46967;48.876;2.136;2023-03-14T11:28:57;6.22;;;1.20;;
61085;SDS011;46967;48.876;2.136;2023-03-14T11:31:27;6.05;;;1.05;;
61085;SDS011;46967;48.876;2.136;2023-03-14T11:39:18;4.63;;;0.90;;
61085;SDS011;46967;48.876;2.136;2023-03-14T11:41:51;6.20;;;1.05;;
61085;SDS011;46967;48.876;2.136;2023-03-14T11:44:19;5.43;;;0.85;;
61085;SDS011;46967;48.876;2.136;2023-03-14T11:46:54;6.05;;;1.25;;
61085;SDS011;46967;48.876;2.136;2023-03-14T11:49:36;4.75;;;1.00;;
61085;SDS011;46967;48.876;2.136;2023-03-14T11:52:27;5.78;;;1.08;;
61085;SDS011;46967;48.876;2.136;2023-03-14T11:55:05;6.72;;;1.23;;
61085;SDS011;46967;48.876;2.136;2023-03-14T11:57:47;7.13;;;1.23;;
61085;SDS011;46967;48.876;2.136;2023-03-14T12:13:48;5.97;;;1.80;;
61085;SDS011;46967;48.876;2.136;2023-03-14T12:18:47;5.75;;;0.77;;
61085;SDS011;46967;48.876;2.136;2023-03-14T12:21:13;4.93;;;1.10;;
61085;SDS011;46967;48.876;2.136;2023-03-14T12:26:15;4.45;;;0.88;;
61085;SDS011;46967;48.876;2.136;2023-03-14T12:34:24;4.50;;;1.00;;
61085;SDS011;46967;48.876;2.136;2023-03-14T12:36:54;5.20;;;1.05;;
61085;SDS011;46967;48.876;2.136;2023-03-14T12:49:48;5.82;;;1.05;;
61085;SDS011;46967;48.876;2.136;2023-03-14T12:52:19;7.97;;;1.35;;
61085;SDS011;46967;48.876;2.136;2023-03-14T12:55:00;6.43;;;1.00;;
61085;SDS011;46967;48.876;2.136;2023-03-14T12:57:31;7.88;;;1.08;;
61085;SDS011;46967;48.876;2.136;2023-03-14T12:59:59;7.50;;;0.95;;
61085;SDS011;46967;48.876;2.136;2023-03-14T13:02:38;5.32;;;1.15;;
61085;SDS011;46967;48.876;2.136;2023-03-14T13:05:22;4.90;;;1.20;;
61085;SDS011;46967;48.876;2.136;2023-03-14T13:15:38;2.63;;;0.65;;
61085;SDS011;46967;48.876;2.136;2023-03-14T13:20:55;8.43;;;1.02;;
61085;SDS011;46967;48.876;2.136;2023-03-14T13:23:27;4.95;;;1.13;;
61085;SDS011;46967;48.876;2.136;2023-03-14T13:25:54;5.72;;;1.55;;
61085;SDS011;46967;48.876;2.136;2023-03-14T13:28:21;6.75;;;1.10;;
61085;SDS011;46967;48.876;2.136;2023-03-14T13:30:48;5.20;;;1.48;;
61085;SDS011;46967;48.876;2.136;2023-03-14T13:33:18;4.90;;;1.00;;
61085;SDS011;46967;48.876;2.136;2023-03-14T13:35:46;6.15;;;1.25;;
61085;SDS011;46967;48.876;2.136;2023-03-14T13:38:24;6.88;;;0.98;;
61085;SDS011;46967;48.876;2.136;2023-03-14T13:40:54;8.15;;;0.88;;
61085;SDS011;46967;48.876;2.136;2023-03-14T13:46:05;5.53;;;1.10;;
61085;SDS011;46967;48.876;2.136;2023-03-14T13:48:33;7.53;;;0.70;;
61085;SDS011;46967;48.876;2.136;2023-03-14T13:51:03;8.05;;;1.13;;
61085;SDS011;46967;48.876;2.136;2023-03-14T13:53:30;3.83;;;0.93;;
61085;SDS011;46967;48.876;2.136;2023-03-14T13:56:01;3.15;;;0.60;;
61085;SDS011;46967;48.876;2.136;2023-03-14T13:58:29;3.60;;;0.93;;
61085;SDS011;46967;48.876;2.136;2023-03-14T14:00:57;2.85;;;0.50;;
61085;SDS011;46967;48.876;2.136;2023-03-14T14:03:25;3.55;;;0.88;;
61085;SDS011;46967;48.876;2.136;2023-03-14T14:05:53;2.50;;;0.63;;
61085;SDS011;46967;48.876;2.136;2023-03-14T14:08:20;5.53;;;0.68;;
61085;SDS011;46967;48.876;2.136;2023-03-14T14:10:46;3.42;;;0.50;;
61085;SDS011;46967;48.876;2.136;2023-03-14T14:13:14;4.55;;;0.80;;
61085;SDS011;46967;48.876;2.136;2023-03-14T14:15:44;2.97;;;0.65;;
61085;SDS011;46967;48.876;2.136;2023-03-14T14:18:12;3.42;;;0.60;;
61085;SDS011;46967;48.876;2.136;2023-03-14T14:20:44;3.60;;;0.70;;
61085;SDS011;46967;48.876;2.136;2023-03-14T14:23:15;3.72;;;0.90;;
61085;SDS011;46967;48.876;2.136;2023-03-14T14:25:49;3.77;;;0.70;;
61085;SDS011;46967;48.876;2.136;2023-03-14T14:30:59;4.57;;;0.55;;
61085;SDS011;46967;48.876;2.136;2023-03-14T14:33:26;4.05;;;0.70;;
61085;SDS011;46967;48.876;2.136;2023-03-14T14:35:53;1.30;;;0.60;;
61085;SDS011;46967;48.876;2.136;2023-03-14T14:38:22;5.88;;;0.75;;
61085;SDS011;46967;48.876;2.136;2023-03-14T14:40:49;4.60;;;0.60;;
61085;SDS011;46967;48.876;2.136;2023-03-14T14:43:17;3.47;;;0.65;;
61085;SDS011;46967;48.876;2.136;2023-03-14T14:45:47;5.20;;;0.70;;
61085;SDS011;46967;48.876;2.136;2023-03-14T14:48:17;3.63;;;0.70;;
61085;SDS011;46967;48.876;2.136;2023-03-14T14:53:19;2.35;;;0.52;;
61085;SDS011;46967;48.876;2.136;2023-03-14T14:55:52;1.48;;;0.70;;
61085;SDS011;46967;48.876;2.136;2023-03-14T15:00:51;2.60;;;0.60;;
61085;SDS011;46967;48.876;2.136;2023-03-14T15:03:21;4.30;;;0.80;;
61085;SDS011;46967;48.876;2.136;2023-03-14T15:05:47;1.33;;;0.55;;
61085;SDS011;46967;48.876;2.136;2023-03-14T15:08:13;3.03;;;0.70;;
61085;SDS011;46967;48.876;2.136;2023-03-14T15:10:38;3.60;;;0.68;;
61085;SDS011;46967;48.876;2.136;2023-03-14T15:13:04;2.20;;;0.68;;
61085;SDS011;46967;48.876;2.136;2023-03-14T15:15:29;3.20;;;0.70;;
61085;SDS011;46967;48.876;2.136;2023-03-14T15:17:55;5.40;;;0.90;;
61085;SDS011;46967;48.876;2.136;2023-03-14T15:20:20;1.83;;;0.70;;
61085;SDS011;46967;48.876;2.136;2023-03-14T15:22:48;8.07;;;0.60;;
61085;SDS011;46967;48.876;2.136;2023-03-14T15:25:14;5.82;;;0.70;;
61085;SDS011;46967;48.876;2.136;2023-03-14T15:27:39;4.00;;;0.90;;
61085;SDS011;46967;48.876;2.136;2023-03-14T15:30:09;5.85;;;1.00;;
61085;SDS011;46967;48.876;2.136;2023-03-14T15:32:38;2.42;;;0.68;;
61085;SDS011;46967;48.876;2.136;2023-03-14T15:35:04;4.05;;;0.52;;
61085;SDS011;46967;48.876;2.136;2023-03-14T15:37:30;2.53;;;0.47;;
61085;SDS011;46967;48.876;2.136;2023-03-14T15:39:55;1.65;;;0.60;;
61085;SDS011;46967;48.876;2.136;2023-03-14T15:42:22;3.08;;;0.80;;
61085;SDS011;46967;48.876;2.136;2023-03-14T15:44:48;3.40;;;0.65;;
61085;SDS011;46967;48.876;2.136;2023-03-14T15:47:13;4.35;;;0.68;;
61085;SDS011;46967;48.876;2.136;2023-03-14T15:49:39;1.75;;;0.73;;
61085;SDS011;46967;48.876;2.136;2023-03-14T15:52:05;3.92;;;0.70;;
61085;SDS011;46967;48.876;2.136;2023-03-14T15:54:32;6.35;;;1.15;;
61085;SDS011;46967;48.876;2.136;2023-03-14T15:56:57;5.88;;;1.35;;
61085;SDS011;46967;48.876;2.136;2023-03-14T15:59:23;6.68;;;1.10;;
61085;SDS011;46967;48.876;2.136;2023-03-14T16:01:49;8.50;;;0.90;;
61085;SDS011;46967;48.876;2.136;2023-03-14T16:04:15;4.10;;;1.00;;
61085;SDS011;46967;48.876;2.136;2023-03-14T16:06:40;4.07;;;1.10;;
61085;SDS011;46967;48.876;2.136;2023-03-14T16:09:06;8.65;;;0.90;;
61085;SDS011;46967;48.876;2.136;2023-03-14T16:11:31;3.13;;;0.68;;
61085;SDS011;46967;48.876;2.136;2023-03-14T16:13:56;3.00;;;0.70;;
61085;SDS011;46967;48.876;2.136;2023-03-14T16:16:22;5.15;;;0.88;;